Tiptonville, TN

10:21 PM CST on November 27, 2014 (GMT -0600)
Arkansas International | Change Station
CLOSE
Current Station
Airport
Location: Blytheville,
Elevation: 256 ft
Nearby Weather Stations

Elev 256 ft 35.96 °N, 89.94 °W | Updated 1 day ago

Clear
Clear
28 °F
Feels Like 28 °F
N
3
Wind Variable Wind from East
Gusts 5 mph

Today
High -- | Low -- °F
--% Chance of Precip.
Yesterday
High -- | Low -- °F
Precip. -- in
6:47 AM 4:43 PM
Waxing Crescent, 36% visible
Pressure 30.00 in
Visibility 10.0 miles
Clouds Scattered Clouds 8500 ft
Overcast 15000 ft
Dew Point 25 °F
Humidity 84%
Rainfall 0.00 in
Snow Depth Not available.
UV 1 out of 12
Pollen .40 out of 12
Air Quality Not available.
Flu Activity Not available.
METAR KBYH 261750Z 15011KT 10SM SCT085 OVC150 07/00 A3000

More Conditions Fewer Conditions

Pressure 30.00 in
Visibility 10.0 miles
Clouds Scattered Clouds 8500 ft
Overcast 15000 ft
Dew Point 25 °F
Humidity 84%
Rainfall 0.00 in
Snow Depth Not available.
UV 1 out of 12
Pollen .40 out of 12
Air Quality Not available.
Flu Activity Not available.
METAR KBYH 261750Z 15011KT 10SM SCT085 OVC150 07/00 A3000

More Conditions Fewer Conditions

10-Day Weather Forecast

Almanac

Astronomy

Nov. 27, 2014 Rise Set
Actual Time
Civil Twilight
Nautical Twilight
Astronomical Twilight
Moon
Length of Visible Light
Length of Day
Tomorrow will be .
, % of the Moon is Illuminated

Today's Extremes

State Highs State Lows

Community

WunderPhotos

Upload Photos

1,774,180 photos uploaded!

WunderBlogs® & News

Nearby

Air Quality

  Air Quality AQ Index Pollutant
Not available.

Snow Depth

Station Depth Elevation

Earthquake Activity

City Distance Mag. Time & Date
Minimum magnitude displayed is 2.5.

Coastal Water Temperatures

Place Temperature

Nearby Weather Stations